sensor_id;sensor_type;location;lat;lon;timestamp;pressure;altitude;pressure_sealevel;temperature
45701;BMP280;36277;32.852;-116.998;2023-04-06T00:01:48;100277.69;;;26.11
45701;BMP280;36277;32.852;-116.998;2023-04-06T00:04:14;100273.84;;;26.12
45701;BMP280;36277;32.852;-116.998;2023-04-06T00:06:40;100277.28;;;26.14
45701;BMP280;36277;32.852;-116.998;2023-04-06T00:09:07;100285.34;;;26.16
45701;BMP280;36277;32.852;-116.998;2023-04-06T00:11:33;100278.56;;;26.18
45701;BMP280;36277;32.852;-116.998;2023-04-06T00:13:59;100285.59;;;26.21
45701;BMP280;36277;32.852;-116.998;2023-04-06T00:16:26;100279.00;;;26.22
45701;BMP280;36277;32.852;-116.998;2023-04-06T00:18:52;100281.59;;;26.23
45701;BMP280;36277;32.852;-116.998;2023-04-06T00:21:18;100279.66;;;26.24
45701;BMP280;36277;32.852;-116.998;2023-04-06T00:23:45;100286.06;;;26.24
45701;BMP280;36277;32.852;-116.998;2023-04-06T00:26:11;100281.16;;;26.26
45701;BMP280;36277;32.852;-116.998;2023-04-06T00:28:38;100284.38;;;26.30
45701;BMP280;36277;32.852;-116.998;2023-04-06T00:31:04;100284.56;;;26.28
45701;BMP280;36277;32.852;-116.998;2023-04-06T00:33:31;100277.97;;;26.29
45701;BMP280;36277;32.852;-116.998;2023-04-06T00:35:58;100283.53;;;26.29
45701;BMP280;36277;32.852;-116.998;2023-04-06T00:38:24;100288.88;;;26.31
45701;BMP280;36277;32.852;-116.998;2023-04-06T00:40:51;100280.34;;;26.32
45701;BMP280;36277;32.852;-116.998;2023-04-06T00:43:18;100282.06;;;26.33
45701;BMP280;36277;32.852;-116.998;2023-04-06T00:45:44;100284.81;;;26.33
45701;BMP280;36277;32.852;-116.998;2023-04-06T00:48:10;100289.31;;;26.34
45701;BMP280;36277;32.852;-116.998;2023-04-06T00:50:36;100291.00;;;26.35
45701;BMP280;36277;32.852;-116.998;2023-04-06T00:53:03;100288.25;;;26.35
45701;BMP280;36277;32.852;-116.998;2023-04-06T00:55:29;100285.47;;;26.35
45701;BMP280;36277;32.852;-116.998;2023-04-06T00:57:59;100283.13;;;26.38
45701;BMP280;36277;32.852;-116.998;2023-04-06T01:00:28;100286.53;;;26.34
45701;BMP280;36277;32.852;-116.998;2023-04-06T01:02:54;100282.72;;;26.35
45701;BMP280;36277;32.852;-116.998;2023-04-06T01:05:20;100287.19;;;26.36
45701;BMP280;36277;32.852;-116.998;2023-04-06T01:07:47;100279.53;;;26.38
45701;BMP280;36277;32.852;-116.998;2023-04-06T01:10:23;100280.66;;;26.43
45701;BMP280;36277;32.852;-116.998;2023-04-06T01:12:50;100277.81;;;26.37
45701;BMP280;36277;32.852;-116.998;2023-04-06T01:15:19;100281.25;;;26.39
45701;BMP280;36277;32.852;-116.998;2023-04-06T01:17:46;100281.66;;;26.36
45701;BMP280;36277;32.852;-116.998;2023-04-06T01:20:12;100281.66;;;26.36
45701;BMP280;36277;32.852;-116.998;2023-04-06T01:22:42;100279.53;;;26.38
45701;BMP280;36277;32.852;-116.998;2023-04-06T01:25:09;100288.06;;;26.37
45701;BMP280;36277;32.852;-116.998;2023-04-06T01:27:35;100287.19;;;26.36
45701;BMP280;36277;32.852;-116.998;2023-04-06T01:30:02;100294.66;;;26.36
45701;BMP280;36277;32.852;-116.998;2023-04-06T01:32:28;100289.31;;;26.34
45701;BMP280;36277;32.852;-116.998;2023-04-06T01:34:55;100296.94;;;26.32
45701;BMP280;36277;32.852;-116.998;2023-04-06T01:37:21;100296.31;;;26.30
45701;BMP280;36277;32.852;-116.998;2023-04-06T01:39:47;100300.13;;;26.29
45701;BMP280;36277;32.852;-116.998;2023-04-06T01:42:13;100303.94;;;26.28
45701;BMP280;36277;32.852;-116.998;2023-04-06T01:44:39;100300.53;;;26.26
45701;BMP280;36277;32.852;-116.998;2023-04-06T01:47:06;100305.84;;;26.21
45701;BMP280;36277;32.852;-116.998;2023-04-06T01:49:32;100295.38;;;26.17
45701;BMP280;36277;32.852;-116.998;2023-04-06T01:51:59;100300.31;;;26.21
45701;BMP280;36277;32.852;-116.998;2023-04-06T01:54:25;100306.50;;;26.23
45701;BMP280;36277;32.852;-116.998;2023-04-06T01:56:52;100308.41;;;26.23
45701;BMP280;36277;32.852;-116.998;2023-04-06T01:59:18;100303.06;;;26.21
45701;BMP280;36277;32.852;-116.998;2023-04-06T02:01:44;100310.97;;;26.24
45701;BMP280;36277;32.852;-116.998;2023-04-06T02:04:11;100306.06;;;26.26
45701;BMP280;36277;32.852;-116.998;2023-04-06T02:06:37;100309.25;;;26.23
45701;BMP280;36277;32.852;-116.998;2023-04-06T02:09:03;100312.66;;;26.25
45701;BMP280;36277;32.852;-116.998;2023-04-06T02:11:30;100307.56;;;26.22
45701;BMP280;36277;32.852;-116.998;2023-04-06T02:13:56;100314.81;;;26.23
45701;BMP280;36277;32.852;-116.998;2023-04-06T02:16:22;100307.56;;;26.22
45701;BMP280;36277;32.852;-116.998;2023-04-06T02:18:49;100314.81;;;26.23
45701;BMP280;36277;32.852;-116.998;2023-04-06T02:21:16;100316.00;;;26.14
45701;BMP280;36277;32.852;-116.998;2023-04-06T02:23:46;100319.69;;;26.21
45701;BMP280;36277;32.852;-116.998;2023-04-06T02:26:13;100317.97;;;26.20
45701;BMP280;36277;32.852;-116.998;2023-04-06T02:28:40;100321.13;;;26.17
45701;BMP280;36277;32.852;-116.998;2023-04-06T02:31:07;100321.13;;;26.17
45701;BMP280;36277;32.852;-116.998;2023-04-06T02:33:33;100334.97;;;26.17
45701;BMP280;36277;32.852;-116.998;2023-04-06T02:35:59;100323.25;;;26.15
45701;BMP280;36277;32.852;-116.998;2023-04-06T02:38:26;100327.91;;;26.15
45701;BMP280;36277;32.852;-116.998;2023-04-06T02:40:52;100330.91;;;26.13
45701;BMP280;36277;32.852;-116.998;2023-04-06T02:43:19;100325.34;;;26.13
45701;BMP280;36277;32.852;-116.998;2023-04-06T02:45:45;100327.47;;;26.11
45701;BMP280;36277;32.852;-116.998;2023-04-06T02:48:12;100328.53;;;26.10
45701;BMP280;36277;32.852;-116.998;2023-04-06T02:50:38;100326.81;;;26.09
45701;BMP280;36277;32.852;-116.998;2023-04-06T02:53:04;100325.97;;;26.09
45701;BMP280;36277;32.852;-116.998;2023-04-06T02:55:30;100332.34;;;26.09
45701;BMP280;36277;32.852;-116.998;2023-04-06T02:57:56;100332.56;;;26.08
45701;BMP280;36277;32.852;-116.998;2023-04-06T03:00:23;100329.53;;;26.03
45701;BMP280;36277;32.852;-116.998;2023-04-06T03:02:49;100322.31;;;26.02
45701;BMP280;36277;32.852;-116.998;2023-04-06T03:05:15;100327.84;;;26.02
45701;BMP280;36277;32.852;-116.998;2023-04-06T03:07:42;100325.06;;;26.02
45701;BMP280;36277;32.852;-116.998;2023-04-06T03:10:08;100329.50;;;25.96
45701;BMP280;36277;32.852;-116.998;2023-04-06T03:12:35;100330.16;;;25.98
45701;BMP280;36277;32.852;-116.998;2023-04-06T03:15:01;100329.69;;;25.95
45701;BMP280;36277;32.852;-116.998;2023-04-06T03:17:27;100328.19;;;25.92
45701;BMP280;36277;32.852;-116.998;2023-04-06T03:19:54;100334.78;;;25.91
45701;BMP280;36277;32.852;-116.998;2023-04-06T03:22:20;100340.69;;;25.88
45701;BMP280;36277;32.852;-116.998;2023-04-06T03:24:46;100345.56;;;25.86
45701;BMP280;36277;32.852;-116.998;2023-04-06T03:27:12;100340.66;;;25.82
45701;BMP280;36277;32.852;-116.998;2023-04-06T03:29:39;100347.41;;;25.79
45701;BMP280;36277;32.852;-116.998;2023-04-06T03:32:05;100354.19;;;25.77
45701;BMP280;36277;32.852;-116.998;2023-04-06T03:34:31;100351.59;;;25.75
45701;BMP280;36277;32.852;-116.998;2023-04-06T03:36:57;100349.66;;;25.69
45701;BMP280;36277;32.852;-116.998;2023-04-06T03:39:24;100354.53;;;25.67
45701;BMP280;36277;32.852;-116.998;2023-04-06T03:41:50;100348.53;;;25.64
45701;BMP280;36277;32.852;-116.998;2023-04-06T03:44:16;100344.53;;;25.66
45701;BMP280;36277;32.852;-116.998;2023-04-06T03:46:42;100353.06;;;25.71
45701;BMP280;36277;32.852;-116.998;2023-04-06T03:49:08;100355.38;;;25.68
45701;BMP280;36277;32.852;-116.998;2023-04-06T03:51:35;100353.06;;;25.71
45701;BMP280;36277;32.852;-116.998;2023-04-06T03:54:01;100353.53;;;25.75
45701;BMP280;36277;32.852;-116.998;2023-04-06T03:56:27;100359.91;;;25.75
45701;BMP280;36277;32.852;-116.998;2023-04-06T03:58:54;100355.72;;;25.79
45701;BMP280;36277;32.852;-116.998;2023-04-06T04:01:20;100357.91;;;25.84
45701;BMP280;36277;32.852;-116.998;2023-04-06T04:03:46;100360.19;;;25.80
45701;BMP280;36277;32.852;-116.998;2023-04-06T04:06:13;100357.91;;;25.84
45701;BMP280;36277;32.852;-116.998;2023-04-06T04:08:39;100360.06;;;25.88
45701;BMP280;36277;32.852;-116.998;2023-04-06T04:11:05;100365.16;;;25.85
45701;BMP280;36277;32.852;-116.998;2023-04-06T04:13:31;100362.16;;;25.86
45701;BMP280;36277;32.852;-116.998;2023-04-06T04:15:58;100368.53;;;25.87
45701;BMP280;36277;32.852;-116.998;2023-04-06T04:18:24;100366.00;;;25.85
45701;BMP280;36277;32.852;-116.998;2023-04-06T04:20:50;100371.50;;;25.85
45701;BMP280;36277;32.852;-116.998;2023-04-06T04:23:16;100365.16;;;25.85
45701;BMP280;36277;32.852;-116.998;2023-04-06T04:25:43;100361.91;;;25.81
45701;BMP280;36277;32.852;-116.998;2023-04-06T04:28:09;100366.78;;;25.79
45701;BMP280;36277;32.852;-116.998;2023-04-06T04:30:35;100354.38;;;25.75
45701;BMP280;36277;32.852;-116.998;2023-04-06T04:33:02;100359.06;;;25.75
45701;BMP280;36277;32.852;-116.998;2023-04-06T04:35:28;100355.84;;;25.71
45701;BMP280;36277;32.852;-116.998;2023-04-06T04:37:54;100362.44;;;25.70
45701;BMP280;36277;32.852;-116.998;2023-04-06T04:40:20;100359.28;;;25.73
45701;BMP280;36277;32.852;-116.998;2023-04-06T04:42:47;100353.53;;;25.75
45701;BMP280;36277;32.852;-116.998;2023-04-06T04:45:13;100356.06;;;25.76
45701;BMP280;36277;32.852;-116.998;2023-04-06T04:47:40;100356.91;;;25.70
45701;BMP280;36277;32.852;-116.998;2023-04-06T04:50:06;100363.25;;;25.71
45701;BMP280;36277;32.852;-116.998;2023-04-06T04:52:32;100364.31;;;25.70
45701;BMP280;36277;32.852;-116.998;2023-04-06T04:54:59;100361.94;;;25.67
45701;BMP280;36277;32.852;-116.998;2023-04-06T04:57:25;100363.59;;;25.61
45701;BMP280;36277;32.852;-116.998;2023-04-06T04:59:51;100377.44;;;25.61
45701;BMP280;36277;32.852;-116.998;2023-04-06T05:02:17;100374.22;;;25.58
45701;BMP280;36277;32.852;-116.998;2023-04-06T05:04:43;100373.56;;;25.56
45701;BMP280;36277;32.852;-116.998;2023-04-06T05:07:10;100379.25;;;25.54
45701;BMP280;36277;32.852;-116.998;2023-04-06T05:09:36;100374.13;;;25.51
45701;BMP280;36277;32.852;-116.998;2023-04-06T05:12:02;100371.13;;;25.46
45701;BMP280;36277;32.852;-116.998;2023-04-06T05:14:29;100367.69;;;25.44
45701;BMP280;36277;32.852;-116.998;2023-04-06T05:16:55;100368.47;;;25.38
45701;BMP280;36277;32.852;-116.998;2023-04-06T05:19:21;100376.50;;;25.33
45701;BMP280;36277;32.852;-116.998;2023-04-06T05:21:48;100369.06;;;25.34
45701;BMP280;36277;32.852;-116.998;2023-04-06T05:24:14;100375.16;;;25.29
45701;BMP280;36277;32.852;-116.998;2023-04-06T05:26:40;100374.72;;;25.26
45701;BMP280;36277;32.852;-116.998;2023-04-06T05:29:07;100376.16;;;25.22
45701;BMP280;36277;32.852;-116.998;2023-04-06T05:31:33;100385.03;;;25.18
45701;BMP280;36277;32.852;-116.998;2023-04-06T05:34:00;100387.13;;;25.16
45701;BMP280;36277;32.852;-116.998;2023-04-06T05:36:26;100379.19;;;25.13
45701;BMP280;36277;32.852;-116.998;2023-04-06T05:38:52;100380.63;;;25.09
45701;BMP280;36277;32.852;-116.998;2023-04-06T05:41:18;100376.16;;;25.08
45701;BMP280;36277;32.852;-116.998;2023-04-06T05:43:46;100377.59;;;25.04
45701;BMP280;36277;32.852;-116.998;2023-04-06T05:46:12;100380.72;;;25.01
45701;BMP280;36277;32.852;-116.998;2023-04-06T05:48:38;100371.31;;;24.95
45701;BMP280;36277;32.852;-116.998;2023-04-06T05:51:04;100372.59;;;24.93
45701;BMP280;36277;32.852;-116.998;2023-04-06T05:53:33;100375.91;;;24.88
45701;BMP280;36277;32.852;-116.998;2023-04-06T05:56:03;100372.97;;;24.90
45701;BMP280;36277;32.852;-116.998;2023-04-06T05:58:30;100373.72;;;24.84
45701;BMP280;36277;32.852;-116.998;2023-04-06T06:00:59;100380.97;;;24.85
45701;BMP280;36277;32.852;-116.998;2023-04-06T06:03:26;100369.84;;;24.78
45701;BMP280;36277;32.852;-116.998;2023-04-06T06:05:52;100374.88;;;24.75
45701;BMP280;36277;32.852;-116.998;2023-04-06T06:08:18;100376.13;;;24.72
45701;BMP280;36277;32.852;-116.998;2023-04-06T06:10:45;100374.78;;;24.68
45701;BMP280;36277;32.852;-116.998;2023-04-06T06:13:11;100382.63;;;24.65
45701;BMP280;36277;32.852;-116.998;2023-04-06T06:15:37;100385.75;;;24.62
45701;BMP280;36277;32.852;-116.998;2023-04-06T06:18:03;100378.69;;;24.59
45701;BMP280;36277;32.852;-116.998;2023-04-06T06:20:30;100372.72;;;24.56
45701;BMP280;36277;32.852;-116.998;2023-04-06T06:22:56;100370.31;;;24.53
45701;BMP280;36277;32.852;-116.998;2023-04-06T06:25:22;100373.66;;;24.48
45701;BMP280;36277;32.852;-116.998;2023-04-06T06:27:49;100374.50;;;24.49
45701;BMP280;36277;32.852;-116.998;2023-04-06T06:30:16;100371.25;;;24.45
45701;BMP280;36277;32.852;-116.998;2023-04-06T06:32:42;100368.19;;;24.40
45701;BMP280;36277;32.852;-116.998;2023-04-06T06:35:08;100368.41;;;24.39
45701;BMP280;36277;32.852;-116.998;2023-04-06T06:37:35;100373.44;;;24.35
45701;BMP280;36277;32.852;-116.998;2023-04-06T06:40:01;100372.97;;;24.32
45701;BMP280;36277;32.852;-116.998;2023-04-06T06:42:27;100375.91;;;24.30
45701;BMP280;36277;32.852;-116.998;2023-04-06T06:44:54;100370.56;;;24.29
45701;BMP280;36277;32.852;-116.998;2023-04-06T06:47:20;100372.00;;;24.25
45701;BMP280;36277;32.852;-116.998;2023-04-06T06:49:46;100372.38;;;24.22
45701;BMP280;36277;32.852;-116.998;2023-04-06T06:52:13;100372.78;;;24.19
45701;BMP280;36277;32.852;-116.998;2023-04-06T06:54:39;100370.38;;;24.16
45701;BMP280;36277;32.852;-116.998;2023-04-06T06:57:05;100369.72;;;24.14
45701;BMP280;36277;32.852;-116.998;2023-04-06T06:59:31;100361.81;;;24.11
45701;BMP280;36277;32.852;-116.998;2023-04-06T07:01:58;100376.66;;;24.10
45701;BMP280;36277;32.852;-116.998;2023-04-06T07:04:24;100374.06;;;24.09
45701;BMP280;36277;32.852;-116.998;2023-04-06T07:06:50;100371.72;;;24.06
45701;BMP280;36277;32.852;-116.998;2023-04-06T07:09:18;100371.88;;;24.04
45701;BMP280;36277;32.852;-116.998;2023-04-06T07:11:45;100375.00;;;24.01
45701;BMP280;36277;32.852;-116.998;2023-04-06T07:14:11;100379.69;;;24.01
45701;BMP280;36277;32.852;-116.998;2023-04-06T07:16:37;100385.19;;;24.01
45701;BMP280;36277;32.852;-116.998;2023-04-06T07:19:03;100381.94;;;23.97
45701;BMP280;36277;32.852;-116.998;2023-04-06T07:21:29;100382.13;;;23.96
45701;BMP280;36277;32.852;-116.998;2023-04-06T07:23:56;100392.69;;;23.92
45701;BMP280;36277;32.852;-116.998;2023-04-06T07:26:22;100388.88;;;23.93
45701;BMP280;36277;32.852;-116.998;2023-04-06T07:28:48;100383.25;;;23.87
45701;BMP280;36277;32.852;-116.998;2023-04-06T07:31:14;100384.13;;;23.87
45701;BMP280;36277;32.852;-116.998;2023-04-06T07:33:41;100388.75;;;23.87
45701;BMP280;36277;32.852;-116.998;2023-04-06T07:36:07;100393.78;;;23.83
45701;BMP280;36277;32.852;-116.998;2023-04-06T07:38:33;100390.38;;;23.81
45701;BMP280;36277;32.852;-116.998;2023-04-06T07:41:00;100391.25;;;23.82
45701;BMP280;36277;32.852;-116.998;2023-04-06T07:43:28;100399.00;;;23.78
45701;BMP280;36277;32.852;-116.998;2023-04-06T07:45:54;100399.16;;;23.77
45701;BMP280;36277;32.852;-116.998;2023-04-06T07:48:23;100399.53;;;23.74
45701;BMP280;36277;32.852;-116.998;2023-04-06T07:50:49;100388.88;;;23.71
45701;BMP280;36277;32.852;-116.998;2023-04-06T07:53:16;100398.38;;;23.68
45701;BMP280;36277;32.852;-116.998;2023-04-06T07:55:42;100402.34;;;23.66
45701;BMP280;36277;32.852;-116.998;2023-04-06T07:58:08;100402.53;;;23.64
45701;BMP280;36277;32.852;-116.998;2023-04-06T08:00:34;100391.88;;;23.61
45701;BMP280;36277;32.852;-116.998;2023-04-06T08:03:01;100391.22;;;23.59
45701;BMP280;36277;32.852;-116.998;2023-04-06T08:05:27;100399.47;;;23.59
45701;BMP280;36277;32.852;-116.998;2023-04-06T08:07:53;100393.28;;;23.57
45701;BMP280;36277;32.852;-116.998;2023-04-06T08:10:19;100397.97;;;23.57
45701;BMP280;36277;32.852;-116.998;2023-04-06T08:12:46;100389.38;;;23.52
45701;BMP280;36277;32.852;-116.998;2023-04-06T08:15:12;100400.41;;;23.52
45701;BMP280;36277;32.852;-116.998;2023-04-06T08:17:38;100388.03;;;23.48
45701;BMP280;36277;32.852;-116.998;2023-04-06T08:20:04;100393.72;;;23.46
45701;BMP280;36277;32.852;-116.998;2023-04-06T08:22:31;100394.09;;;23.43
45701;BMP280;36277;32.852;-116.998;2023-04-06T08:24:57;100400.66;;;23.42
45701;BMP280;36277;32.852;-116.998;2023-04-06T08:27:23;100398.94;;;23.41
45701;BMP280;36277;32.852;-116.998;2023-04-06T08:29:49;100394.63;;;23.39
45701;BMP280;36277;32.852;-116.998;2023-04-06T08:32:17;100394.81;;;23.37
45701;BMP280;36277;32.852;-116.998;2023-04-06T08:34:43;100394.31;;;23.34
45701;BMP280;36277;32.852;-116.998;2023-04-06T08:37:09;100388.13;;;23.32
45701;BMP280;36277;32.852;-116.998;2023-04-06T08:39:35;100389.38;;;23.29
45701;BMP280;36277;32.852;-116.998;2023-04-06T08:42:02;100380.44;;;23.27
45701;BMP280;36277;32.852;-116.998;2023-04-06T08:44:29;100378.72;;;23.26
45701;BMP280;36277;32.852;-116.998;2023-04-06T08:46:56;100370.81;;;23.23
45701;BMP280;36277;32.852;-116.998;2023-04-06T08:49:23;100377.56;;;23.21
45701;BMP280;36277;32.852;-116.998;2023-04-06T08:51:49;100371.56;;;23.17
45701;BMP280;36277;32.852;-116.998;2023-04-06T08:54:16;100368.97;;;23.16
45701;BMP280;36277;32.852;-116.998;2023-04-06T08:56:43;100372.75;;;23.15
45701;BMP280;36277;32.852;-116.998;2023-04-06T08:59:09;100369.16;;;23.14
45701;BMP280;36277;32.852;-116.998;2023-04-06T09:01:39;100368.13;;;23.15
45701;BMP280;36277;32.852;-116.998;2023-04-06T09:04:07;100360.59;;;23.09
45701;BMP280;36277;32.852;-116.998;2023-04-06T09:06:37;100366.41;;;23.06
45701;BMP280;36277;32.852;-116.998;2023-04-06T09:09:04;100363.88;;;23.05
45701;BMP280;36277;32.852;-116.998;2023-04-06T09:11:44;100362.81;;;23.06
45701;BMP280;36277;32.852;-116.998;2023-04-06T09:14:11;100350.97;;;22.98
45701;BMP280;36277;32.852;-116.998;2023-04-06T09:16:44;100355.09;;;23.01
45701;BMP280;36277;32.852;-116.998;2023-04-06T09:19:12;100357.53;;;22.97
45701;BMP280;36277;32.852;-116.998;2023-04-06T09:21:39;100346.72;;;22.95
45701;BMP280;36277;32.852;-116.998;2023-04-06T09:24:08;100347.06;;;22.92
45701;BMP280;36277;32.852;-116.998;2023-04-06T09:26:45;100341.41;;;22.94
45701;BMP280;36277;32.852;-116.998;2023-04-06T09:29:22;100338.13;;;22.90
45701;BMP280;36277;32.852;-116.998;2023-04-06T09:31:50;100330.78;;;22.83
45701;BMP280;36277;32.852;-116.998;2023-04-06T09:34:22;100335.56;;;22.89
45701;BMP280;36277;32.852;-116.998;2023-04-06T09:36:51;100330.31;;;22.79
45701;BMP280;36277;32.852;-116.998;2023-04-06T09:39:21;100327.53;;;22.79
45701;BMP280;36277;32.852;-116.998;2023-04-06T09:41:52;100326.88;;;22.77
45701;BMP280;36277;32.852;-116.998;2023-04-06T09:44:20;100324.28;;;22.76
45701;BMP280;36277;32.852;-116.998;2023-04-06T09:46:47;100325.31;;;22.75
45701;BMP280;36277;32.852;-116.998;2023-04-06T09:49:13;100321.03;;;22.72
45701;BMP280;36277;32.852;-116.998;2023-04-06T09:51:52;100314.16;;;22.76
45701;BMP280;36277;32.852;-116.998;2023-04-06T09:54:22;100312.13;;;22.70
45701;BMP280;36277;32.852;-116.998;2023-04-06T09:56:58;100308.47;;;22.70
45701;BMP280;36277;32.852;-116.998;2023-04-06T10:02:34;100313.19;;;22.61
45701;BMP280;36277;32.852;-116.998;2023-04-06T10:05:08;100309.75;;;22.59
45701;BMP280;36277;32.852;-116.998;2023-04-06T10:07:36;100301.84;;;22.56
45701;BMP280;36277;32.852;-116.998;2023-04-06T10:10:05;100306.31;;;22.57
45701;BMP280;36277;32.852;-116.998;2023-04-06T10:12:31;100303.28;;;22.52
45701;BMP280;36277;32.852;-116.998;2023-04-06T10:14:58;100294.34;;;22.50
45701;BMP280;36277;32.852;-116.998;2023-04-06T10:17:25;100303.78;;;22.48
45701;BMP280;36277;32.852;-116.998;2023-04-06T10:23:19;100295.06;;;22.44
45701;BMP280;36277;32.852;-116.998;2023-04-06T10:25:57;100292.47;;;22.43
45701;BMP280;36277;32.852;-116.998;2023-04-06T10:28:25;100291.28;;;22.37
45701;BMP280;36277;32.852;-116.998;2023-04-06T10:30:59;100284.59;;;22.40
45701;BMP280;36277;32.852;-116.998;2023-04-06T10:33:27;100289.78;;;22.35
45701;BMP280;36277;32.852;-116.998;2023-04-06T10:35:53;100295.41;;;22.33
45701;BMP280;36277;32.852;-116.998;2023-04-06T10:38:32;100282.69;;;22.32
45701;BMP280;36277;32.852;-116.998;2023-04-06T10:41:07;100289.06;;;22.33
45701;BMP280;36277;32.852;-116.998;2023-04-06T10:43:35;100286.66;;;22.30
45701;BMP280;36277;32.852;-116.998;2023-04-06T10:46:03;100284.25;;;22.27
45701;BMP280;36277;32.852;-116.998;2023-04-06T10:51:11;100293.53;;;22.26
45701;BMP280;36277;32.852;-116.998;2023-04-06T10:53:39;100281.53;;;22.19
45701;BMP280;36277;32.852;-116.998;2023-04-06T10:56:10;100281.38;;;22.20
45701;BMP280;36277;32.852;-116.998;2023-04-06T10:58:47;100284.13;;;22.20
45701;BMP280;36277;32.852;-116.998;2023-04-06T11:01:18;100284.28;;;22.19
45701;BMP280;36277;32.852;-116.998;2023-04-06T11:03:50;100278.31;;;22.15
45701;BMP280;36277;32.852;-116.998;2023-04-06T11:06:21;100277.81;;;22.12
45701;BMP280;36277;32.852;-116.998;2023-04-06T11:08:47;100282.97;;;22.07
45701;BMP280;36277;32.852;-116.998;2023-04-06T11:11:16;100285.03;;;22.05
45701;BMP280;36277;32.852;-116.998;2023-04-06T11:13:49;100278.84;;;22.03
45701;BMP280;36277;32.852;-116.998;2023-04-06T11:16:19;100284.03;;;21.98
45701;BMP280;36277;32.852;-116.998;2023-04-06T11:18:56;100281.28;;;21.98
45701;BMP280;36277;32.852;-116.998;2023-04-06T11:21:42;100278.03;;;21.94
45701;BMP280;36277;32.852;-116.998;2023-04-06T11:24:19;100279.75;;;21.88
45701;BMP280;36277;32.852;-116.998;2023-04-06T11:26:49;100276.84;;;21.89
45701;BMP280;36277;32.852;-116.998;2023-04-06T11:29:29;100280.09;;;21.92
45701;BMP280;36277;32.852;-116.998;2023-04-06T11:32:06;100280.94;;;21.93
45701;BMP280;36277;32.852;-116.998;2023-04-06T11:34:36;100284.22;;;21.88
45701;BMP280;36277;32.852;-116.998;2023-04-06T11:37:08;100273.59;;;21.86
45701;BMP280;36277;32.852;-116.998;2023-04-06T11:39:50;100265.88;;;21.81
45701;BMP280;36277;32.852;-116.998;2023-04-06T11:42:27;100274.47;;;21.78
45701;BMP280;36277;32.852;-116.998;2023-04-06T11:44:56;100268.63;;;21.73
45701;BMP280;36277;32.852;-116.998;2023-04-06T11:47:34;100274.81;;;21.75
45701;BMP280;36277;32.852;-116.998;2023-04-06T11:50:08;100273.44;;;21.71
45701;BMP280;36277;32.852;-116.998;2023-04-06T11:52:35;100278.97;;;21.63
45701;BMP280;36277;32.852;-116.998;2023-04-06T11:55:16;100287.72;;;21.67
45701;BMP280;36277;32.852;-116.998;2023-04-06T11:57:43;100284.13;;;21.58
45701;BMP280;36277;32.852;-116.998;2023-04-06T12:00:11;100282.22;;;21.59
45701;BMP280;36277;32.852;-116.998;2023-04-06T12:02:38;100277.91;;;21.56
45701;BMP280;36277;32.852;-116.998;2023-04-06T12:05:05;100281.84;;;21.54
45701;BMP280;36277;32.852;-116.998;2023-04-06T12:07:33;100276.53;;;21.52
45701;BMP280;36277;32.852;-116.998;2023-04-06T12:10:01;100285.66;;;21.53
45701;BMP280;36277;32.852;-116.998;2023-04-06T12:12:28;100288.75;;;21.50
45701;BMP280;36277;32.852;-116.998;2023-04-06T12:14:55;100278.94;;;21.47
45701;BMP280;36277;32.852;-116.998;2023-04-06T12:17:21;100281.69;;;21.47
45701;BMP280;36277;32.852;-116.998;2023-04-06T12:19:49;100283.41;;;21.48
45701;BMP280;36277;32.852;-116.998;2023-04-06T12:22:15;100280.66;;;21.48
45701;BMP280;36277;32.852;-116.998;2023-04-06T12:24:41;100286.16;;;21.48
45701;BMP280;36277;32.852;-116.998;2023-04-06T12:27:08;100288.41;;;21.45
45701;BMP280;36277;32.852;-116.998;2023-04-06T12:29:34;100288.56;;;21.43
45701;BMP280;36277;32.852;-116.998;2023-04-06T12:32:00;100286.00;;;21.42
45701;BMP280;36277;32.852;-116.998;2023-04-06T12:34:27;100292.69;;;21.39
45701;BMP280;36277;32.852;-116.998;2023-04-06T12:36:53;100292.84;;;21.38
45701;BMP280;36277;32.852;-116.998;2023-04-06T12:39:19;100304.03;;;21.36
45701;BMP280;36277;32.852;-116.998;2023-04-06T12:41:47;100298.88;;;21.33
45701;BMP280;36277;32.852;-116.998;2023-04-06T12:44:13;100307.25;;;21.32
45701;BMP280;36277;32.852;-116.998;2023-04-06T12:46:39;100300.44;;;21.28
45701;BMP280;36277;32.852;-116.998;2023-04-06T12:49:06;100302.28;;;21.27
45701;BMP280;36277;32.852;-116.998;2023-04-06T12:51:32;100295.44;;;21.23
45701;BMP280;36277;32.852;-116.998;2023-04-06T12:53:59;100296.13;;;21.25
45701;BMP280;36277;32.852;-116.998;2023-04-06T12:56:25;100301.78;;;21.32
45701;BMP280;36277;32.852;-116.998;2023-04-06T12:58:52;100310.91;;;21.40
45701;BMP280;36277;32.852;-116.998;2023-04-06T13:01:18;100308.13;;;21.48
45701;BMP280;36277;32.852;-116.998;2023-04-06T13:03:44;100307.25;;;21.56
45701;BMP280;36277;32.852;-116.998;2023-04-06T13:06:11;100308.84;;;21.66
45701;BMP280;36277;32.852;-116.998;2023-04-06T13:08:39;100312.25;;;21.76
45701;BMP280;36277;32.852;-116.998;2023-04-06T13:11:05;100306.56;;;21.86
45701;BMP280;36277;32.852;-116.998;2023-04-06T13:13:35;100308.06;;;21.96
45701;BMP280;36277;32.852;-116.998;2023-04-06T13:16:05;100309.78;;;22.05
45701;BMP280;36277;32.852;-116.998;2023-04-06T13:18:31;100309.09;;;22.11
45701;BMP280;36277;32.852;-116.998;2023-04-06T13:20:58;100312.19;;;22.08
45701;BMP280;36277;32.852;-116.998;2023-04-06T13:23:25;100313.22;;;22.07
45701;BMP280;36277;32.852;-116.998;2023-04-06T13:26:05;100313.22;;;22.07
45701;BMP280;36277;32.852;-116.998;2023-04-06T13:28:33;100312.88;;;22.02
45701;BMP280;36277;32.852;-116.998;2023-04-06T13:31:00;100312.38;;;21.98
45701;BMP280;36277;32.852;-116.998;2023-04-06T13:33:27;100320.78;;;21.97